Time;durP1;ratioP1;P1;durP2;ratioP2;P2;SDS_P1;SDS_P2;PMS_P1;PMS_P2;Temp;Humidity;BMP_temperature;BMP_pressure;BME280_temperature;BME280_humidity;BME280_pressure;Samples;Min_cycle;Max_cycle;Signal;HPM_P1;HPM_P2
2022/12/20 04:50:11;;;;;;;30.33;14.13;;;;;;;-1.79;100.00;102073.91;5422445;27;110272;-84
2022/12/20 04:56:38;;;;;;;37.63;15.15;;;;;;;-1.80;100.00;102073.97;5361340;33;34791;-84
2022/12/20 04:59:42;;;;;;;34.90;15.13;;;;;;;-1.79;100.00;102079.19;5361966;33;34667;-84
2022/12/20 05:02:45;;;;;;;32.63;15.00;;;;;;;-1.90;100.00;102079.59;5352031;33;32198;-84
2022/12/20 05:05:49;;;;;;;33.03;13.80;;;;;;;-1.88;100.00;102079.53;5352165;33;32670;-84
2022/12/20 05:08:53;;;;;;;33.78;14.87;;;;;;;-1.90;100.00;102076.06;5366415;33;34892;-84
2022/12/20 05:11:56;;;;;;;31.48;14.68;;;;;;;-1.91;100.00;102091.03;5365455;33;34009;-84
2022/12/20 05:14:59;;;;;;;34.17;15.50;;;;;;;-1.81;100.00;102088.97;5363681;33;34128;-84
2022/12/20 05:18:02;;;;;;;34.30;15.10;;;;;;;-1.88;100.00;102090.94;5361929;33;34183;-84
2022/12/20 05:27:51;;;;;;;32.15;13.60;;;;;;;-1.96;100.00;102100.94;5361043;33;34064;-85
2022/12/20 05:30:56;;;;;;;31.75;15.10;;;;;;;-2.02;100.00;102102.91;5360816;33;34027;-85
2022/12/20 05:33:59;;;;;;;36.25;15.43;;;;;;;-2.10;100.00;102098.78;5347876;33;32326;-85
2022/12/20 05:37:03;;;;;;;35.13;15.18;;;;;;;-2.00;100.00;102099.31;5362420;33;34936;-84
2022/12/20 05:40:07;;;;;;;34.97;14.93;;;;;;;-2.07;100.00;102093.38;5351597;33;33496;-84
2022/12/20 05:43:10;;;;;;;35.45;14.63;;;;;;;-2.06;100.00;102100.38;5353470;33;32360;-84
2022/12/20 05:46:14;;;;;;;37.05;15.02;;;;;;;-2.09;100.00;102103.12;5362165;33;34497;-84
2022/12/20 05:49:18;;;;;;;30.77;13.23;;;;;;;-2.03;100.00;102094.13;5361545;33;34361;-85
2022/12/20 05:52:21;;;;;;;35.58;15.43;;;;;;;-2.04;100.00;102092.41;5361949;33;34687;-84
2022/12/20 05:55:24;;;;;;;34.80;14.65;;;;;;;-2.09;100.00;102095.22;5362554;33;34030;-84
2022/12/20 05:58:27;;;;;;;35.95;15.88;;;;;;;-2.16;100.00;102098.13;5361690;33;34490;-83
2022/12/20 06:01:32;;;;;;;38.15;14.73;;;;;;;-2.22;100.00;102082.50;5361367;33;34191;-86
2022/12/20 06:04:37;;;;;;;33.55;15.23;;;;;;;-2.24;100.00;102074.66;5362247;33;33787;-88
2022/12/20 06:07:40;;;;;;;31.98;14.75;;;;;;;-2.28;100.00;102067.78;5361397;33;34693;-88
2022/12/20 06:10:44;;;;;;;39.75;16.20;;;;;;;-2.22;100.00;102057.00;5348269;33;33495;-85
2022/12/20 06:13:49;;;;;;;38.88;16.37;;;;;;;-2.23;100.00;102055.25;5361480;33;35480;-85
2022/12/20 06:16:52;;;;;;;34.60;15.13;;;;;;;-2.22;100.00;102053.47;5361682;33;34229;-84
2022/12/20 06:19:56;;;;;;;34.17;14.23;;;;;;;-2.28;100.00;102050.16;5361460;33;34367;-85
2022/12/20 06:23:03;;;;;;;36.35;14.38;;;;;;;-2.35;100.00;102050.41;5360809;33;33831;-84
2022/12/20 06:26:10;;;;;;;35.17;15.05;;;;;;;-2.36;100.00;102054.00;5349465;33;34598;-85
2022/12/20 06:29:16;;;;;;;36.58;14.77;;;;;;;-2.39;100.00;102051.44;5343831;33;34784;-85
2022/12/20 06:32:19;;;;;;;35.90;15.13;;;;;;;-2.40;100.00;102049.72;5347928;33;32457;-84
2022/12/20 06:35:23;;;;;;;33.40;14.38;;;;;;;-2.38;100.00;102051.38;5361293;33;34118;-85
2022/12/20 06:38:27;;;;;;;34.97;15.70;;;;;;;-2.42;100.00;102048.94;5349178;33;34348;-85
2022/12/20 06:41:30;;;;;;;38.15;15.05;;;;;;;-2.42;100.00;102041.00;5358254;33;33860;-84
2022/12/20 06:44:33;;;;;;;39.50;15.75;;;;;;;-2.38;100.00;102039.97;5354734;33;34688;-85
2022/12/20 06:47:36;;;;;;;41.10;15.40;;;;;;;-2.37;100.00;102032.03;5354331;33;34403;-84
2022/12/20 06:50:39;;;;;;;33.85;14.23;;;;;;;-2.39;100.00;102036.47;5360863;33;33646;-84
2022/12/20 06:53:42;;;;;;;35.00;15.13;;;;;;;-2.37;100.00;102029.38;5360709;33;34402;-84
2022/12/20 06:56:45;;;;;;;35.65;15.52;;;;;;;-2.33;100.00;102035.41;5361127;33;33608;-85
2022/12/20 06:59:49;;;;;;;33.83;15.65;;;;;;;-2.18;100.00;102020.81;5364246;33;32458;-84
2022/12/20 07:02:51;;;;;;;36.15;15.52;;;;;;;-2.17;100.00;102018.09;5363771;33;33937;-84
2022/12/20 07:05:55;;;;;;;35.50;15.27;;;;;;;-2.10;100.00;102016.13;5365659;33;34333;-84
2022/12/20 07:08:57;;;;;;;39.15;16.85;;;;;;;-2.01;100.00;102018.41;5350941;33;33075;-84
2022/12/20 07:12:00;;;;;;;36.25;14.60;;;;;;;-1.91;100.00;102022.41;5362972;33;34247;-84
2022/12/20 07:15:03;;;;;;;37.25;15.77;;;;;;;-1.75;100.00;102011.31;5360606;33;34242;-84
2022/12/20 07:18:06;;;;;;;32.30;15.75;;;;;;;-1.75;100.00;102012.16;5347161;33;32320;-84
2022/12/20 07:21:09;;;;;;;34.33;15.73;;;;;;;-1.65;100.00;102015.31;5361113;33;34235;-83
2022/12/20 07:24:12;;;;;;;35.22;15.52;;;;;;;-1.53;100.00;102027.16;5346405;33;32730;-83
2022/12/20 07:27:15;;;;;;;36.03;13.77;;;;;;;-1.56;100.00;102029.94;5354367;33;34193;-84
2022/12/20 07:30:19;;;;;;;35.25;15.77;;;;;;;-1.59;100.00;102020.34;5360834;33;34134;-84
2022/12/20 07:33:22;;;;;;;36.53;14.52;;;;;;;-1.44;100.00;102032.09;5347516;33;34523;-84
2022/12/20 07:36:27;;;;;;;33.45;14.55;;;;;;;-1.20;100.00;102044.34;5361141;33;34325;-84
2022/12/20 07:39:30;;;;;;;31.92;15.63;;;;;;;-1.17;100.00;102043.34;5361132;33;34753;-84
2022/12/20 07:42:33;;;;;;;28.00;13.05;;;;;;;-1.15;100.00;102038.88;5353494;33;35291;-84
2022/12/20 07:45:42;;;;;;;32.28;13.65;;;;;;;-1.16;100.00;102026.59;5344607;33;34000;-83
2022/12/20 07:48:45;;;;;;;33.08;14.60;;;;;;;-1.18;100.00;102024.00;5344558;33;32958;-83
2022/12/20 07:51:52;;;;;;;27.40;13.98;;;;;;;-1.13;100.00;102026.47;5355435;33;34521;-83
2022/12/20 07:55:01;;;;;;;32.28;15.15;;;;;;;-1.19;100.00;102024.91;5343313;33;34333;-84
2022/12/20 07:58:08;;;;;;;35.90;14.55;;;;;;;-1.04;100.00;102025.22;5342562;33;34542;-83
2022/12/20 08:01:11;;;;;;;38.80;13.85;;;;;;;-1.01;100.00;102033.03;5342942;33;32347;-88
2022/12/20 08:04:20;;;;;;;33.67;15.40;;;;;;;-0.89;100.00;102027.22;5344845;33;34221;-87
2022/12/20 08:07:23;;;;;;;28.12;13.62;;;;;;;-0.82;100.00;102017.25;5346000;33;34358;-85
2022/12/20 08:10:27;;;;;;;35.22;14.57;;;;;;;-0.96;100.00;102005.50;5344692;33;34066;-85
2022/12/20 08:13:31;;;;;;;28.10;13.95;;;;;;;-1.02;100.00;101994.31;5346971;33;33911;-85
2022/12/20 08:16:34;;;;;;;28.75;13.73;;;;;;;-1.05;100.00;101994.41;5347374;33;33998;-85
2022/12/20 08:19:37;;;;;;;32.75;14.38;;;;;;;-1.10;100.00;101996.41;5355427;33;34840;-84
2022/12/20 08:22:40;;;;;;;34.78;14.23;;;;;;;-1.16;100.00;101986.94;5351636;33;33855;-84
2022/12/20 08:25:43;;;;;;;27.65;12.32;;;;;;;-1.05;100.00;101975.91;5346537;33;32128;-84
2022/12/20 08:28:46;;;;;;;29.35;14.48;;;;;;;-1.01;100.00;101977.53;5346999;33;34504;-84
2022/12/20 08:31:48;;;;;;;27.98;13.25;;;;;;;-0.92;100.00;101977.12;5346617;33;33923;-85
2022/12/20 08:34:52;;;;;;;32.42;14.30;;;;;;;-0.96;100.00;101981.69;5350403;33;34394;-85
2022/12/20 08:37:55;;;;;;;32.10;15.40;;;;;;;-0.82;100.00;101990.81;5348066;33;34422;-85
2022/12/20 08:41:09;;;;;;;28.92;13.05;;;;;;;-0.57;100.00;101988.84;5346537;33;33775;-85
2022/12/20 08:44:12;;;;;;;32.92;13.48;;;;;;;-0.40;100.00;101980.19;5360108;33;34347;-85
2022/12/20 08:47:15;;;;;;;30.45;13.20;;;;;;;-0.19;100.00;101982.78;5345318;33;34672;-85
2022/12/20 08:50:18;;;;;;;27.05;12.57;;;;;;;-0.09;100.00;101979.69;5357649;33;33665;-85
2022/12/20 08:53:21;;;;;;;32.58;13.00;;;;;;;0.04;100.00;101981.75;5348246;33;32316;-84
2022/12/20 08:56:24;;;;;;;27.90;12.70;;;;;;;0.08;100.00;101975.38;5358234;33;33953;-85
2022/12/20 08:59:27;;;;;;;31.58;12.40;;;;;;;0.27;100.00;101962.16;5364337;33;34110;-84
2022/12/20 09:02:30;;;;;;;26.52;11.50;;;;;;;0.18;100.00;101966.09;5354534;33;34271;-83
2022/12/20 09:05:34;;;;;;;27.00;12.80;;;;;;;0.28;100.00;101977.94;5356524;33;33671;-84
2022/12/20 09:08:38;;;;;;;29.60;13.85;;;;;;;0.22;99.35;101987.03;5365910;33;34779;-83
2022/12/20 09:11:41;;;;;;;27.90;13.98;;;;;;;0.29;99.94;101968.22;5362477;33;33851;-83
2022/12/20 09:14:44;;;;;;;31.50;15.48;;;;;;;0.44;98.14;101965.72;5352903;33;33266;-85
2022/12/20 09:17:47;;;;;;;29.45;13.35;;;;;;;0.52;98.48;101970.62;5368233;33;34552;-84
2022/12/20 09:20:49;;;;;;;27.87;13.30;;;;;;;0.66;97.06;101975.25;5355326;33;34087;-85
2022/12/20 09:23:54;;;;;;;28.80;11.95;;;;;;;0.72;95.76;101974.97;5361322;33;34204;-85
2022/12/20 09:26:57;;;;;;;28.35;13.18;;;;;;;0.94;94.91;101968.59;5358626;33;34863;-85
2022/12/20 09:30:00;;;;;;;27.77;13.43;;;;;;;1.06;94.36;101963.53;5345169;33;32792;-85
2022/12/20 09:33:03;;;;;;;29.55;14.27;;;;;;;1.02;94.11;101959.31;5359792;33;35093;-85
2022/12/20 09:36:22;;;;;;;28.17;12.90;;;;;;;1.17;94.22;101956.81;5359894;33;34125;-85
2022/12/20 09:39:25;;;;;;;29.10;12.40;;;;;;;1.24;92.33;101951.13;5362694;33;33641;-85
2022/12/20 09:42:29;;;;;;;28.27;12.70;;;;;;;1.01;92.33;101938.19;5355603;33;34299;-84
2022/12/20 09:45:35;;;;;;;26.25;12.70;;;;;;;0.95;93.83;101927.91;5353928;33;34138;-83
2022/12/20 09:48:39;;;;;;;28.00;12.30;;;;;;;0.95;92.32;101933.19;5355386;33;34636;-85
2022/12/20 09:51:54;;;;;;;28.80;12.50;;;;;;;0.86;93.37;101923.91;5342518;33;34135;-88
2022/12/20 09:55:49;;;;;;;22.37;11.63;;;;;;;0.77;94.56;101919.09;5355451;33;33766;-84
2022/12/20 09:59:05;;;;;;;26.40;12.45;;;;;;;0.79;93.44;101923.38;5344624;33;34379;-85
2022/12/20 10:02:18;;;;;;;28.75;13.52;;;;;;;0.83;93.85;101924.06;5347373;33;34831;-84
2022/12/20 10:05:46;;;;;;;28.42;13.02;;;;;;;0.94;93.78;101915.56;5348960;33;34808;-85
2022/12/20 10:08:59;;;;;;;26.98;12.07;;;;;;;0.98;93.28;101909.19;5358570;33;34187;-84
2022/12/20 10:12:08;;;;;;;26.75;12.40;;;;;;;1.00;92.68;101912.63;5352948;33;34455;-84
2022/12/20 10:15:49;;;;;;;27.52;13.55;;;;;;;1.19;92.75;101904.56;5361621;33;33601;-84
2022/12/20 10:18:56;;;;;;;27.60;13.27;;;;;;;1.16;91.54;101894.97;5354526;33;34526;-85
2022/12/20 10:22:10;;;;;;;26.58;11.52;;;;;;;1.08;92.46;101892.72;5351685;33;34026;-85
2022/12/20 10:25:17;;;;;;;24.83;11.88;;;;;;;1.16;91.94;101878.19;5358027;33;34056;-85
2022/12/20 10:28:26;;;;;;;25.42;12.63;;;;;;;1.27;91.37;101881.16;5343040;33;34081;-84
2022/12/20 10:31:29;;;;;;;25.45;12.18;;;;;;;1.49;90.28;101878.19;5353655;33;32618;-84
2022/12/20 10:34:32;;;;;;;22.23;11.10;;;;;;;1.54;89.62;101868.19;5372205;33;34858;-85
2022/12/20 10:38:01;;;;;;;31.13;13.70;;;;;;;1.54;89.62;101862.88;5354933;33;34378;-84
2022/12/20 10:41:16;;;;;;;;;;;;;;;2.00;87.30;101850.59;5352991;33;33956;-84
2022/12/20 10:44:27;;;;;;;24.67;12.13;;;;;;;2.42;85.78;101846.41;5358092;33;34297;-84
2022/12/20 10:47:42;;;;;;;24.00;12.93;;;;;;;2.83;83.71;101844.91;5357282;33;33765;-84
2022/12/20 10:50:56;;;;;;;25.10;12.80;;;;;;;2.71;82.67;101838.53;5346926;33;33661;-86
2022/12/20 10:54:02;;;;;;;27.10;12.82;;;;;;;2.92;82.00;101844.38;5357567;33;33929;-84
2022/12/20 10:57:26;;;;;;;28.45;12.52;;;;;;;2.87;81.46;101846.47;5349095;33;34578;-83
2022/12/20 11:00:30;;;;;;;26.95;12.30;;;;;;;2.73;80.55;101815.38;5359035;33;34401;-88
2022/12/20 11:03:49;;;;;;;25.73;12.35;;;;;;;2.30;83.01;101825.00;5343981;33;32369;-89
2022/12/20 11:06:52;;;;;;;23.33;11.60;;;;;;;2.07;84.54;101808.59;5336641;33;32134;-84
2022/12/20 11:09:58;;;;;;;28.98;13.02;;;;;;;2.11;84.76;101804.81;5353423;33;34081;-84
2022/12/20 11:13:02;;;;;;;26.55;12.40;;;;;;;2.11;83.83;101807.47;5360653;33;34544;-84
2022/12/20 11:16:05;;;;;;;26.23;11.77;;;;;;;2.17;85.55;101801.81;5348153;33;33567;-84
2022/12/20 11:19:33;;;;;;;25.20;12.13;;;;;;;2.06;84.55;101790.94;5345347;33;35296;-84
2022/12/20 11:22:58;;;;;;;26.05;12.60;;;;;;;2.24;84.40;101789.03;5343890;33;32516;-84
2022/12/20 11:26:13;;;;;;;26.85;12.85;;;;;;;2.52;82.70;101795.41;5339456;33;32640;-84
2022/12/20 11:29:41;;;;;;;24.40;12.82;;;;;;;2.73;81.26;101789.63;5359056;33;34928;-85
2022/12/20 11:32:55;;;;;;;23.92;12.37;;;;;;;2.73;80.90;101773.69;5356788;33;34315;-84
2022/12/20 11:36:05;;;;;;;26.67;13.35;;;;;;;2.72;80.46;101760.47;5352409;33;33884;-84
2022/12/20 11:39:37;;;;;;;25.55;12.88;;;;;;;2.61;81.38;101758.47;5348827;33;33985;-83
2022/12/20 11:43:23;;;;;;;29.15;13.15;;;;;;;2.73;82.15;101754.22;5365273;33;33969;-84
2022/12/20 11:46:37;;;;;;;25.95;12.52;;;;;;;2.65;81.47;101753.81;5353041;33;33749;-84
2022/12/20 11:50:11;;;;;;;29.27;13.00;;;;;;;2.97;80.37;101751.84;5342825;33;34619;-84
2022/12/20 11:53:27;;;;;;;24.12;12.48;;;;;;;3.43;79.77;101748.13;5351825;33;34666;-84
2022/12/20 11:56:36;;;;;;;26.08;12.40;;;;;;;4.00;76.32;101751.44;5358155;33;34271;-84
2022/12/20 11:59:51;;;;;;;27.87;13.32;;;;;;;4.36;74.93;101754.41;5343367;33;34399;-84
2022/12/20 12:03:04;;;;;;;25.50;12.77;;;;;;;4.86;72.00;101756.28;5347490;33;34872;-84
2022/12/20 12:06:15;;;;;;;26.70;13.80;;;;;;;5.01;69.85;101746.34;5371475;33;34094;-83
2022/12/20 12:09:21;;;;;;;29.12;13.73;;;;;;;4.22;73.10;101742.88;5370139;33;35013;-88
2022/12/20 12:12:41;;;;;;;25.15;13.30;;;;;;;4.16;74.14;101739.78;5370043;33;33972;-86
2022/12/20 12:15:47;;;;;;;;;;;;;;;5.38;69.57;101728.56;5368614;33;34303;-84
2022/12/20 12:18:51;;;;;;;24.33;13.30;;;;;;;5.59;68.64;101730.66;5349106;33;33282;-83
2022/12/20 12:22:04;;;;;;;24.40;13.02;;;;;;;5.39;67.65;101724.94;5359951;33;33762;-83
2022/12/20 12:25:15;;;;;;;25.25;12.75;;;;;;;4.61;69.86;101725.13;5378641;33;33739;-84
2022/12/20 12:28:20;;;;;;;26.85;13.93;;;;;;;4.39;72.89;101722.19;5370645;33;34321;-84
2022/12/20 12:31:47;;;;;;;23.50;12.50;;;;;;;4.75;70.79;101717.00;5356442;33;33926;-85
2022/12/20 12:35:05;;;;;;;26.42;12.93;;;;;;;4.66;70.05;101716.81;5368523;33;32385;-83
2022/12/20 12:38:33;;;;;;;23.80;12.73;;;;;;;4.53;71.21;101712.31;5350016;33;33531;-83
2022/12/20 12:41:45;;;;;;;27.48;13.73;;;;;;;4.20;72.50;101703.97;5343140;33;33638;-83
2022/12/20 12:44:52;;;;;;;26.33;13.18;;;;;;;3.95;74.61;101694.06;5357742;33;33983;-83
2022/12/20 12:47:59;;;;;;;26.25;13.18;;;;;;;3.78;74.03;101690.75;5361464;33;34496;-84
2022/12/20 12:51:05;;;;;;;29.08;13.70;;;;;;;3.41;76.34;101695.81;5351017;33;33770;-88
2022/12/20 12:54:27;;;;;;;28.30;14.50;;;;;;;3.04;78.04;101697.31;5356513;33;34646;-88
2022/12/20 12:57:55;;;;;;;26.80;12.75;;;;;;;2.90;79.95;101692.00;5354598;33;33746;-85
2022/12/20 13:01:03;;;;;;;25.00;12.80;;;;;;;2.94;79.59;101690.84;5353344;33;34104;-83
2022/12/20 13:04:21;;;;;;;24.48;11.55;;;;;;;3.01;79.24;101694.81;5354780;33;35296;-85
2022/12/20 13:07:31;;;;;;;27.67;14.90;;;;;;;3.01;81.16;101686.84;5360739;33;33913;-85
2022/12/20 13:10:37;;;;;;;24.33;12.25;;;;;;;2.86;80.61;101691.31;5361677;33;32237;-85
2022/12/20 13:13:40;;;;;;;25.52;13.40;;;;;;;2.75;80.47;101688.50;5371546;33;32174;-84
2022/12/20 13:16:44;;;;;;;25.65;12.77;;;;;;;2.44;82.66;101676.22;5382210;33;34080;-84
2022/12/20 13:20:17;;;;;;;26.75;13.07;;;;;;;2.43;83.71;101686.00;5360471;33;34159;-84
2022/12/20 13:23:20;;;;;;;28.23;12.80;;;;;;;2.48;82.92;101675.94;5359187;33;34192;-84
2022/12/20 13:26:48;;;;;;;29.05;13.38;;;;;;;2.52;83.17;101675.78;5343584;33;34770;-83
2022/12/20 13:30:01;;;;;;;25.85;12.93;;;;;;;2.44;83.32;101671.75;5332093;33;33602;-83
2022/12/20 13:33:22;;;;;;;27.83;13.27;;;;;;;2.42;83.08;101670.13;5352153;33;33997;-88
2022/12/20 13:36:33;;;;;;;23.92;11.93;;;;;;;2.26;83.26;101664.91;5331904;33;33706;-84
2022/12/20 13:39:36;;;;;;;23.80;13.02;;;;;;;2.32;83.14;101659.22;5351391;33;33829;-84
2022/12/20 13:42:41;;;;;;;27.23;13.30;;;;;;;2.27;83.87;101658.62;5350374;33;34072;-84
2022/12/20 13:45:47;;;;;;;24.67;12.07;;;;;;;2.19;83.79;101661.75;5356122;33;33702;-84
2022/12/20 13:48:54;;;;;;;25.95;12.90;;;;;;;1.97;85.60;101664.84;5359155;33;34857;-83
2022/12/20 13:52:07;;;;;;;27.25;13.07;;;;;;;1.87;86.39;101668.97;5348231;33;33918;-83
2022/12/20 13:55:32;;;;;;;27.02;12.43;;;;;;;2.03;86.09;101653.84;5352972;33;33860;-83
2022/12/20 13:58:41;;;;;;;28.50;13.02;;;;;;;2.09;86.41;101649.12;5356683;33;33884;-83
2022/12/20 14:01:53;;;;;;;25.48;13.15;;;;;;;2.04;86.61;101650.25;5346318;33;32476;-83
2022/12/20 14:05:01;;;;;;;28.73;13.77;;;;;;;1.90;87.62;101634.31;5340874;33;34296;-84
2022/12/20 14:08:16;;;;;;;25.42;13.18;;;;;;;1.98;86.84;101628.50;5357614;33;33364;-83
2022/12/20 14:11:28;;;;;;;24.70;12.98;;;;;;;2.07;86.30;101622.66;5359864;33;34854;-84
2022/12/20 14:14:37;;;;;;;30.83;13.45;;;;;;;1.99;86.03;101624.91;5345354;33;34677;-84
2022/12/20 14:17:40;;;;;;;29.47;12.73;;;;;;;1.85;87.71;101620.44;5334573;33;33783;-84
2022/12/20 14:20:56;;;;;;;28.87;14.50;;;;;;;1.68;90.62;101620.56;5340123;33;32594;-88
2022/12/20 14:24:00;;;;;;;31.98;12.60;;;;;;;1.51;92.93;101625.03;5339976;33;33011;-85
2022/12/20 14:27:03;;;;;;;28.08;14.30;;;;;;;1.39;94.39;101627.56;5344382;33;33811;-84
2022/12/20 14:30:26;;;;;;;26.95;13.18;;;;;;;1.22;96.38;101624.06;5357964;33;33412;-84
2022/12/20 14:33:31;;;;;;;32.05;14.98;;;;;;;1.08;96.77;101616.91;5346642;33;34047;-84
2022/12/20 14:36:36;;;;;;;27.60;14.13;;;;;;;0.88;99.12;101619.81;5344294;33;33927;-84
2022/12/20 14:40:02;;;;;;;29.90;13.57;;;;;;;0.84;98.66;101615.59;5343603;33;34421;-84
2022/12/20 14:43:25;;;;;;;31.60;15.30;;;;;;;0.69;100.00;101601.41;5350835;33;33942;-84
2022/12/20 14:46:30;;;;;;;31.58;14.65;;;;;;;0.55;100.00;101602.16;5349857;33;34811;-84
2022/12/20 14:49:37;;;;;;;32.50;15.77;;;;;;;0.54;100.00;101605.75;5343817;33;33470;-84
2022/12/20 14:52:41;;;;;;;28.10;13.60;;;;;;;0.55;100.00;101594.19;5338605;33;33970;-84
2022/12/20 14:55:45;;;;;;;28.52;13.95;;;;;;;0.53;100.00;101600.53;5329899;33;33983;-84
2022/12/20 14:59:23;;;;;;;29.75;14.52;;;;;;;0.51;100.00;101595.31;5333924;33;33943;-84
2022/12/20 15:02:39;;;;;;;31.08;14.98;;;;;;;0.50;100.00;101596.25;5340539;33;32510;-84
2022/12/20 15:05:50;;;;;;;33.67;14.95;;;;;;;0.37;100.00;101606.66;5347504;33;34362;-89
2022/12/20 15:08:52;;;;;;;;;;;;;;;0.34;100.00;101608.59;5326791;33;33943;-86
2022/12/20 15:11:57;;;;;;;31.42;15.48;;;;;;;0.33;100.00;101610.41;5326758;33;34825;-84
2022/12/20 15:15:00;;;;;;;31.55;16.00;;;;;;;0.27;100.00;101607.25;5329591;33;33971;-85
2022/12/20 15:18:23;;;;;;;29.67;14.30;;;;;;;0.29;100.00;101598.25;5324520;33;34041;-84
2022/12/20 15:21:34;;;;;;;34.40;15.45;;;;;;;0.30;100.00;101599.97;5327321;33;34144;-84
2022/12/20 15:24:37;;;;;;;37.08;15.30;;;;;;;0.26;100.00;101593.09;5342063;33;34882;-85
2022/12/20 15:27:40;;;;;;;37.30;17.02;;;;;;;0.31;100.00;101598.19;5324216;33;33125;-85
2022/12/20 15:30:45;;;;;;;37.83;17.25;;;;;;;0.26;100.00;101582.50;5324925;33;33137;-85
2022/12/20 15:33:49;;;;;;;40.58;18.77;;;;;;;0.22;100.00;101595.06;5340380;33;33626;-84
2022/12/20 15:36:52;;;;;;;37.88;17.73;;;;;;;0.20;100.00;101601.38;5341946;33;33915;-85
2022/12/20 15:39:55;;;;;;;40.00;17.77;;;;;;;0.12;100.00;101606.25;5342821;33;33942;-85
2022/12/20 15:42:58;;;;;;;37.55;15.80;;;;;;;0.09;100.00;101614.31;5340479;33;33586;-85
2022/12/20 15:46:01;;;;;;;35.05;16.50;;;;;;;0.09;100.00;101611.69;5327529;33;33042;-85
2022/12/20 15:49:03;;;;;;;32.47;16.58;;;;;;;0.06;100.00;101619.78;5346722;33;34703;-85
2022/12/20 15:52:15;;;;;;;39.10;17.80;;;;;;;0.10;100.00;101616.91;5359374;33;33865;-86
2022/12/20 15:55:17;;;;;;;36.70;16.58;;;;;;;0.01;100.00;101625.34;5360252;33;34816;-85
2022/12/20 15:58:22;;;;;;;39.40;17.23;;;;;;;-0.04;100.00;101617.63;5335685;33;32445;-83
2022/12/20 16:01:30;;;;;;;34.50;16.83;;;;;;;-0.03;100.00;101615.81;5336140;33;32329;-83
2022/12/20 16:04:42;;;;;;;34.92;15.70;;;;;;;0.08;100.00;101617.91;5335759;33;32782;-85
2022/12/20 16:07:45;;;;;;;37.03;17.73;;;;;;;0.05;100.00;101611.00;5352691;33;33697;-83
2022/12/20 16:10:50;;;;;;;35.92;16.45;;;;;;;-0.03;100.00;101599.94;5357884;33;33832;-83
2022/12/20 16:13:54;;;;;;;34.60;17.17;;;;;;;-0.05;100.00;101597.38;5343346;33;32333;-83
2022/12/20 16:16:57;;;;;;;31.83;17.17;;;;;;;-0.03;100.00;101608.75;5344733;33;33895;-83
2022/12/20 16:20:00;;;;;;;37.92;17.73;;;;;;;0.04;100.00;101613.72;5354831;33;33735;-83
2022/12/20 16:23:06;;;;;;;33.95;17.67;;;;;;;-0.04;100.00;101614.13;5343559;33;33508;-84
2022/12/20 16:26:15;;;;;;;32.33;16.67;;;;;;;-0.07;100.00;101614.28;5343358;33;34339;-83
2022/12/20 16:29:18;;;;;;;35.80;17.33;;;;;;;-0.04;100.00;101609.69;5330581;33;32806;-88
2022/12/20 16:32:20;;;;;;;35.97;17.10;;;;;;;-0.11;100.00;101595.06;5343588;33;34891;-88
2022/12/20 16:35:36;;;;;;;35.60;17.75;;;;;;;-0.09;100.00;101600.25;5348843;33;33927;-88
2022/12/20 16:38:39;;;;;;;39.63;18.40;;;;;;;-0.06;100.00;101598.34;5349594;33;34463;-84
2022/12/20 16:41:43;;;;;;;39.13;18.65;;;;;;;-0.05;100.00;101599.19;5343454;33;34197;-84
2022/12/20 16:44:50;;;;;;;36.15;17.87;;;;;;;-0.04;100.00;101593.78;5329991;33;32519;-84
2022/12/20 16:47:54;;;;;;;44.40;18.98;;;;;;;-0.06;100.00;101587.75;5343216;33;34369;-84
2022/12/20 16:50:57;;;;;;;43.67;19.30;;;;;;;-0.13;100.00;101594.28;5343221;33;33873;-84
2022/12/20 16:54:02;;;;;;;42.67;19.10;;;;;;;-0.18;100.00;101596.28;5343525;33;33995;-84
2022/12/20 16:57:21;;;;;;;45.85;19.98;;;;;;;-0.19;100.00;101593.75;5342908;33;34475;-84
